createdAt,value
2022-09-26T00:01:07.080Z,100.00
2022-09-26T00:02:08.907Z,100.00
2022-09-26T00:03:11.558Z,100.00
2022-09-26T00:04:32.600Z,100.00
2022-09-26T00:05:34.771Z,100.00
2022-09-26T00:06:36.934Z,100.00
2022-09-26T00:07:38.587Z,100.00
2022-09-26T00:08:40.607Z,100.00
2022-09-26T00:09:42.263Z,100.00
2022-09-26T00:10:43.904Z,100.00
2022-09-26T00:11:46.285Z,100.00
2022-09-26T00:12:48.041Z,100.00
2022-09-26T00:13:53.474Z,100.00
2022-09-26T00:14:55.190Z,100.00
2022-09-26T00:15:57.824Z,100.00
2022-09-26T00:17:00.045Z,100.00
2022-09-26T00:18:01.836Z,100.00
2022-09-26T00:19:04.791Z,100.00
2022-09-26T00:20:07.001Z,100.00
2022-09-26T00:21:14.551Z,100.00
2022-09-26T00:22:16.262Z,100.00
2022-09-26T00:23:18.414Z,100.00
2022-09-26T00:24:20.101Z,100.00
2022-09-26T00:25:21.802Z,100.00
2022-09-26T00:26:26.811Z,100.00
2022-09-26T00:27:28.449Z,100.00
2022-09-26T00:28:30.497Z,100.00
2022-09-26T00:29:32.116Z,100.00
2022-09-26T00:30:37.018Z,100.00
2022-09-26T00:31:44.295Z,100.00
2022-09-26T00:32:46.510Z,100.00
2022-09-26T00:33:48.374Z,100.00
2022-09-26T00:34:50.644Z,100.00
2022-09-26T00:35:56.821Z,100.00
2022-09-26T00:36:59.013Z,100.00
2022-09-26T00:38:00.702Z,100.00
2022-09-26T00:39:02.577Z,100.00
2022-09-26T00:40:04.968Z,100.00
2022-09-26T00:41:07.726Z,100.00
2022-09-26T00:42:14.990Z,100.00
2022-09-26T00:43:32.139Z,100.00
2022-09-26T00:44:50.094Z,100.00
2022-09-26T00:45:51.858Z,100.00
2022-09-26T00:46:53.619Z,100.00
2022-09-26T00:48:03.825Z,100.00
2022-09-26T00:49:23.518Z,100.00
2022-09-26T00:50:31.892Z,100.00
2022-09-26T00:51:39.499Z,100.00
2022-09-26T00:52:49.347Z,100.00
2022-09-26T00:53:54.055Z,100.00
2022-09-26T00:55:01.346Z,100.00
2022-09-26T00:56:11.235Z,100.00
2022-09-26T00:57:19.224Z,100.00
2022-09-26T00:58:24.531Z,100.00
2022-09-26T00:59:35.539Z,100.00
2022-09-26T01:00:42.368Z,100.00
2022-09-26T01:01:45.234Z,100.00
2022-09-26T01:02:48.617Z,100.00
2022-09-26T01:03:52.045Z,100.00
2022-09-26T01:04:56.538Z,100.00
2022-09-26T01:06:00.884Z,100.00
2022-09-26T01:07:08.611Z,100.00
2022-09-26T01:08:13.264Z,100.00
2022-09-26T01:09:16.802Z,100.00
2022-09-26T01:10:18.724Z,100.00
2022-09-26T01:11:21.823Z,100.00
2022-09-26T01:12:23.967Z,100.00
2022-09-26T01:13:27.027Z,100.00
2022-09-26T01:14:28.797Z,100.00
2022-09-26T01:15:30.535Z,100.00
2022-09-26T01:16:34.389Z,100.00
2022-09-26T01:17:44.333Z,100.00
2022-09-26T01:18:47.833Z,100.00
2022-09-26T01:20:10.094Z,100.00
2022-09-26T01:21:36.228Z,100.00
2022-09-26T01:23:06.078Z,100.00
2022-09-26T01:24:37.876Z,100.00
2022-09-26T01:26:17.404Z,100.00
2022-09-26T01:27:42.927Z,100.00
2022-09-26T01:29:27.986Z,100.00
2022-09-26T01:30:50.932Z,100.00
2022-09-26T01:32:50.403Z,100.00
2022-09-26T01:34:24.475Z,100.00
2022-09-26T01:35:55.350Z,100.00
2022-09-26T01:37:22.971Z,100.00
2022-09-26T01:38:43.238Z,100.00
2022-09-26T01:40:02.536Z,100.00
2022-09-26T01:41:28.414Z,100.00
2022-09-26T01:43:13.112Z,100.00
2022-09-26T01:44:46.759Z,100.00
2022-09-26T01:46:13.603Z,100.00
2022-09-26T01:47:25.097Z,100.00
2022-09-26T01:48:44.461Z,100.00
2022-09-26T01:50:06.420Z,100.00
2022-09-26T01:51:36.386Z,100.00
2022-09-26T01:53:13.555Z,100.00
2022-09-26T01:54:23.274Z,100.00
2022-09-26T01:55:36.128Z,100.00
2022-09-26T01:56:42.275Z,100.00
2022-09-26T01:58:10.795Z,100.00
2022-09-26T01:59:33.344Z,100.00
2022-09-26T02:00:40.955Z,100.00
2022-09-26T02:01:47.334Z,100.00
2022-09-26T02:02:51.096Z,100.00
2022-09-26T02:04:03.204Z,100.00
2022-09-26T02:05:12.027Z,100.00
2022-09-26T02:06:23.064Z,100.00
2022-09-26T02:07:39.059Z,100.00
2022-09-26T02:08:46.950Z,100.00
2022-09-26T02:10:02.660Z,100.00
2022-09-26T02:11:13.609Z,100.00
2022-09-26T02:12:32.876Z,100.00
2022-09-26T02:13:44.597Z,100.00
2022-09-26T02:14:51.241Z,100.00
2022-09-26T02:16:01.037Z,100.00
2022-09-26T02:17:11.939Z,100.00
2022-09-26T02:18:39.533Z,100.00
2022-09-26T02:19:59.989Z,100.00
2022-09-26T02:21:07.806Z,100.00
2022-09-26T02:22:10.421Z,100.00
2022-09-26T02:23:13.889Z,100.00
2022-09-26T02:24:16.040Z,100.00
2022-09-26T02:25:18.053Z,100.00
2022-09-26T02:26:20.239Z,100.00
2022-09-26T02:27:22.410Z,100.00
2022-09-26T02:28:24.137Z,100.00
2022-09-26T02:29:26.344Z,100.00
2022-09-26T02:30:29.320Z,100.00
2022-09-26T02:31:36.915Z,100.00
2022-09-26T02:32:40.543Z,100.00
2022-09-26T02:33:42.434Z,100.00
2022-09-26T02:34:48.278Z,100.00
2022-09-26T02:35:55.849Z,100.00
2022-09-26T02:37:01.256Z,100.00
2022-09-26T02:38:06.929Z,100.00
2022-09-26T02:39:11.824Z,100.00
2022-09-26T02:40:56.514Z,100.00
2022-09-26T02:42:13.281Z,100.00
2022-09-26T02:44:03.337Z,100.00
2022-09-26T02:45:23.597Z,100.00
2022-09-26T02:46:53.700Z,100.00
2022-09-26T02:48:14.055Z,100.00
2022-09-26T02:49:45.359Z,100.00
2022-09-26T02:51:00.794Z,100.00
2022-09-26T02:52:36.029Z,100.00
2022-09-26T02:53:55.821Z,100.00
2022-09-26T02:55:21.995Z,100.00
2022-09-26T02:56:55.450Z,100.00
2022-09-26T02:58:18.730Z,100.00
2022-09-26T02:59:35.615Z,100.00
2022-09-26T03:01:05.907Z,100.00
2022-09-26T03:02:21.652Z,100.00
2022-09-26T03:04:04.849Z,100.00
2022-09-26T03:05:17.766Z,100.00
2022-09-26T03:06:28.129Z,100.00
2022-09-26T03:07:48.824Z,100.00
2022-09-26T03:08:55.085Z,100.00
2022-09-26T03:10:03.639Z,100.00
2022-09-26T03:11:10.854Z,100.00
2022-09-26T03:12:13.998Z,100.00
2022-09-26T03:13:18.461Z,100.00
2022-09-26T03:14:21.244Z,100.00
2022-09-26T03:15:27.521Z,100.00
2022-09-26T03:16:35.720Z,100.00
2022-09-26T03:17:44.604Z,100.00
2022-09-26T03:19:05.778Z,100.00
2022-09-26T03:20:14.856Z,100.00
2022-09-26T03:21:18.362Z,100.00
2022-09-26T03:22:20.085Z,100.00
2022-09-26T03:23:24.466Z,100.00
2022-09-26T03:24:27.747Z,100.00
2022-09-26T03:25:30.076Z,100.00
2022-09-26T03:26:41.987Z,100.00
2022-09-26T03:27:46.305Z,100.00
2022-09-26T03:28:48.046Z,100.00
2022-09-26T03:29:50.631Z,100.00
2022-09-26T03:30:55.882Z,100.00
2022-09-26T03:32:01.763Z,100.00
2022-09-26T03:33:03.681Z,100.00
2022-09-26T03:34:05.638Z,100.00
2022-09-26T03:35:08.811Z,100.00
2022-09-26T03:36:10.475Z,100.00
2022-09-26T03:37:12.409Z,100.00
2022-09-26T03:38:14.634Z,100.00
2022-09-26T03:39:21.775Z,100.00
2022-09-26T03:40:42.336Z,100.00
2022-09-26T03:42:10.008Z,100.00
2022-09-26T03:43:13.499Z,100.00
2022-09-26T03:44:15.951Z,100.00
2022-09-26T03:45:40.541Z,100.00
2022-09-26T03:46:52.317Z,100.00
2022-09-26T03:47:57.693Z,100.00
2022-09-26T03:48:59.652Z,100.00
2022-09-26T03:50:01.602Z,100.00
2022-09-26T03:51:09.254Z,100.00
2022-09-26T03:52:12.602Z,100.00
2022-09-26T03:53:14.580Z,100.00
2022-09-26T03:54:16.620Z,100.00
2022-09-26T03:55:18.554Z,100.00
2022-09-26T03:56:21.069Z,100.00
2022-09-26T03:57:23.117Z,100.00
2022-09-26T03:58:28.395Z,100.00
2022-09-26T03:59:30.370Z,100.00
2022-09-26T04:00:32.280Z,100.00
2022-09-26T04:01:34.112Z,100.00
2022-09-26T04:02:36.531Z,100.00
2022-09-26T04:03:50.847Z,100.00
2022-09-26T04:04:54.087Z,100.00
2022-09-26T04:05:55.809Z,100.00
2022-09-26T04:06:58.961Z,100.00
2022-09-26T04:08:03.036Z,100.00
2022-09-26T04:09:05.355Z,100.00
2022-09-26T04:10:07.785Z,100.00
2022-09-26T04:11:12.484Z,100.00
2022-09-26T04:12:14.708Z,100.00
2022-09-26T04:13:46.501Z,100.00
2022-09-26T04:14:40.108Z,100.00
2022-09-26T04:15:42.102Z,100.00
2022-09-26T04:16:47.534Z,100.00
2022-09-26T04:18:01.919Z,100.00
2022-09-26T04:19:04.221Z,100.00
2022-09-26T04:20:06.391Z,100.00
2022-09-26T04:21:11.594Z,100.00
2022-09-26T04:22:13.320Z,100.00
2022-09-26T04:23:15.670Z,100.00
2022-09-26T04:24:17.447Z,100.00
2022-09-26T04:25:19.100Z,100.00
2022-09-26T04:26:24.253Z,100.00
2022-09-26T04:27:28.802Z,100.00
2022-09-26T04:28:33.309Z,100.00
2022-09-26T04:29:35.011Z,100.00
2022-09-26T04:30:43.103Z,100.00
2022-09-26T04:31:45.982Z,100.00
2022-09-26T04:32:48.415Z,100.00
2022-09-26T04:34:02.278Z,100.00
2022-09-26T04:35:04.198Z,100.00
2022-09-26T04:36:09.353Z,100.00
2022-09-26T04:37:12.141Z,100.00
2022-09-26T04:38:13.992Z,100.00
2022-09-26T04:39:15.843Z,100.00
2022-09-26T04:40:17.605Z,100.00
2022-09-26T04:41:30.356Z,100.00
2022-09-26T04:42:36.980Z,100.00
2022-09-26T04:43:40.260Z,100.00
2022-09-26T04:44:44.886Z,100.00
2022-09-26T04:45:46.724Z,100.00
2022-09-26T04:46:48.745Z,100.00
2022-09-26T04:47:51.232Z,100.00
2022-09-26T04:49:02.540Z,100.00
2022-09-26T04:50:05.070Z,100.00
2022-09-26T04:51:07.926Z,100.00
2022-09-26T04:52:09.702Z,100.00
2022-09-26T04:53:12.381Z,100.00
2022-09-26T04:54:20.468Z,100.00
2022-09-26T04:55:22.949Z,100.00
2022-09-26T04:56:28.035Z,100.00
2022-09-26T04:57:29.868Z,100.00
2022-09-26T04:58:32.674Z,100.00
2022-09-26T04:59:34.450Z,100.00
2022-09-26T05:00:47.783Z,100.00
2022-09-26T05:01:51.421Z,100.00
2022-09-26T05:02:59.788Z,100.00
2022-09-26T05:04:01.781Z,100.00
2022-09-26T05:05:06.830Z,100.00
2022-09-26T05:06:13.581Z,100.00
2022-09-26T05:07:16.344Z,100.00
2022-09-26T05:08:18.109Z,100.00
2022-09-26T05:09:20.727Z,100.00
2022-09-26T05:10:28.750Z,100.00
2022-09-26T05:11:34.273Z,100.00
2022-09-26T05:12:36.018Z,100.00
2022-09-26T05:13:38.850Z,100.00
2022-09-26T05:14:44.347Z,100.00
2022-09-26T05:15:45.983Z,100.00
2022-09-26T05:16:47.981Z,100.00
2022-09-26T05:17:57.552Z,100.00
2022-09-26T05:18:59.525Z,100.00
2022-09-26T05:20:04.498Z,100.00
2022-09-26T05:21:56.145Z,100.00
2022-09-26T05:22:59.032Z,100.00
2022-09-26T05:24:19.560Z,100.00
2022-09-26T05:25:40.412Z,100.00
2022-09-26T05:26:49.367Z,100.00
2022-09-26T05:27:53.512Z,100.00
2022-09-26T05:29:07.715Z,100.00
2022-09-26T05:30:17.809Z,100.00
2022-09-26T05:31:19.816Z,100.00
2022-09-26T05:32:22.256Z,100.00
2022-09-26T05:33:25.297Z,100.00
2022-09-26T05:34:27.305Z,100.00
2022-09-26T05:35:29.146Z,100.00
2022-09-26T05:36:31.183Z,100.00
2022-09-26T05:37:33.634Z,100.00
2022-09-26T05:38:35.540Z,100.00
2022-09-26T05:39:56.166Z,100.00
2022-09-26T05:40:58.146Z,100.00
2022-09-26T05:42:01.122Z,100.00
2022-09-26T05:43:03.621Z,100.00
2022-09-26T05:44:05.417Z,100.00
2022-09-26T05:45:13.015Z,100.00
2022-09-26T05:46:16.689Z,100.00
2022-09-26T05:47:22.392Z,100.00
2022-09-26T05:48:25.485Z,100.00
2022-09-26T05:49:27.804Z,100.00
2022-09-26T05:50:29.731Z,100.00
2022-09-26T05:51:33.498Z,100.00
2022-09-26T05:52:39.448Z,100.00
2022-09-26T05:53:44.276Z,100.00
2022-09-26T05:54:47.648Z,100.00
2022-09-26T05:56:48.751Z,100.00
2022-09-26T05:58:10.030Z,100.00
2022-09-26T05:59:46.942Z,100.00
2022-09-26T06:01:17.441Z,100.00
2022-09-26T06:02:21.093Z,100.00
2022-09-26T06:03:46.788Z,100.00
2022-09-26T06:04:54.052Z,100.00
2022-09-26T06:06:44.281Z,100.00
2022-09-26T06:07:47.150Z,100.00
2022-09-26T06:09:07.487Z,100.00
2022-09-26T06:10:41.496Z,100.00
2022-09-26T06:11:43.184Z,100.00
2022-09-26T06:12:50.905Z,100.00
2022-09-26T06:13:53.578Z,100.00
2022-09-26T06:14:55.268Z,100.00
2022-09-26T06:16:00.557Z,100.00
2022-09-26T06:17:02.330Z,100.00
2022-09-26T06:18:05.243Z,100.00
2022-09-26T06:19:07.715Z,100.00
2022-09-26T06:20:10.807Z,100.00
2022-09-26T06:21:15.086Z,100.00
2022-09-26T06:22:16.779Z,100.00
2022-09-26T06:23:18.515Z,100.00
2022-09-26T06:24:21.256Z,100.00
2022-09-26T06:25:26.013Z,100.00
2022-09-26T06:26:30.686Z,100.00
2022-09-26T06:27:34.931Z,100.00
2022-09-26T06:28:38.981Z,100.00
2022-09-26T06:29:40.873Z,100.00
2022-09-26T06:30:42.625Z,100.00
2022-09-26T06:31:46.995Z,100.00
2022-09-26T06:32:53.272Z,100.00
2022-09-26T06:34:15.707Z,100.00
2022-09-26T06:36:15.850Z,100.00
2022-09-26T06:37:17.514Z,100.00
2022-09-26T06:38:19.187Z,100.00
2022-09-26T06:39:20.910Z,100.00
2022-09-26T06:40:22.745Z,100.00
2022-09-26T06:41:26.518Z,100.00
2022-09-26T06:42:28.203Z,100.00
2022-09-26T06:43:49.938Z,100.00
2022-09-26T06:45:10.672Z,100.00
2022-09-26T06:47:05.433Z,100.00
2022-09-26T06:48:13.211Z,100.00
2022-09-26T06:49:30.952Z,100.00
2022-09-26T06:50:37.845Z,100.00
2022-09-26T06:51:39.490Z,100.00
2022-09-26T06:52:44.085Z,100.00
2022-09-26T06:53:46.877Z,100.00
2022-09-26T06:54:56.701Z,100.00
2022-09-26T06:55:59.490Z,100.00
2022-09-26T06:57:01.549Z,100.00
2022-09-26T06:58:03.635Z,100.00
2022-09-26T06:59:12.992Z,100.00
2022-09-26T07:00:23.486Z,100.00
2022-09-26T07:02:06.350Z,100.00
2022-09-26T07:03:26.833Z,100.00
2022-09-26T07:04:38.952Z,100.00
2022-09-26T07:06:03.323Z,100.00
2022-09-26T07:07:05.618Z,100.00
2022-09-26T07:08:07.391Z,100.00
2022-09-26T07:09:12.240Z,100.00
2022-09-26T07:10:26.280Z,100.00
2022-09-26T07:11:56.624Z,100.00
2022-09-26T07:13:05.843Z,100.00
2022-09-26T07:14:07.582Z,100.00
2022-09-26T07:15:15.398Z,100.00
2022-09-26T07:16:18.147Z,100.00
2022-09-26T07:18:19.190Z,100.00
2022-09-26T07:19:35.610Z,100.00
2022-09-26T07:20:45.426Z,100.00
2022-09-26T07:22:05.537Z,100.00
2022-09-26T07:23:16.865Z,100.00
2022-09-26T07:24:19.888Z,100.00
2022-09-26T07:25:22.182Z,100.00
2022-09-26T07:26:24.891Z,100.00
2022-09-26T07:27:26.933Z,100.00
2022-09-26T07:28:29.275Z,100.00
2022-09-26T07:29:32.338Z,100.00
2022-09-26T07:30:34.515Z,100.00
2022-09-26T07:31:46.329Z,100.00
2022-09-26T07:33:03.708Z,100.00
2022-09-26T07:34:25.218Z,100.00
2022-09-26T07:35:27.368Z,100.00
2022-09-26T07:36:29.283Z,100.00
2022-09-26T07:37:32.224Z,100.00
2022-09-26T07:38:34.598Z,100.00
2022-09-26T07:39:37.774Z,100.00
2022-09-26T07:40:43.244Z,100.00
2022-09-26T07:41:46.110Z,100.00
2022-09-26T07:43:09.282Z,100.00
2022-09-26T07:45:51.139Z,100.00
2022-09-26T07:47:11.258Z,100.00
2022-09-26T07:48:31.930Z,100.00
2022-09-26T07:50:23.342Z,100.00
2022-09-26T07:51:40.007Z,100.00
2022-09-26T07:52:48.178Z,100.00
2022-09-26T07:53:49.825Z,100.00
2022-09-26T07:55:12.632Z,100.00
2022-09-26T07:56:26.128Z,100.00
2022-09-26T07:57:35.453Z,100.00
2022-09-26T07:58:50.576Z,100.00
2022-09-26T08:00:40.260Z,100.00
2022-09-26T08:02:30.577Z,100.00
2022-09-26T08:03:33.169Z,100.00
2022-09-26T08:04:45.286Z,100.00
2022-09-26T08:05:47.067Z,100.00
2022-09-26T08:06:50.193Z,100.00
2022-09-26T08:07:51.961Z,100.00
2022-09-26T08:09:12.087Z,100.00
2022-09-26T08:10:33.671Z,100.00
2022-09-26T08:11:55.857Z,100.00
2022-09-26T08:13:16.284Z,99.10
2022-09-26T08:14:37.476Z,98.56
2022-09-26T08:16:01.951Z,96.33
2022-09-26T08:17:04.183Z,94.98
2022-09-26T08:18:06.025Z,95.06
2022-09-26T08:19:17.179Z,95.50
2022-09-26T08:20:19.873Z,94.67
2022-09-26T08:21:23.148Z,94.30
2022-09-26T08:22:28.856Z,95.22
2022-09-26T08:23:30.712Z,94.05
2022-09-26T08:24:53.377Z,91.71
2022-09-26T08:26:09.763Z,90.79
2022-09-26T08:27:22.716Z,91.07
2022-09-26T08:28:28.524Z,91.74
2022-09-26T08:29:34.147Z,92.62
2022-09-26T08:30:37.150Z,92.66
2022-09-26T08:31:40.069Z,91.96
2022-09-26T08:32:44.454Z,91.97
2022-09-26T08:33:49.191Z,92.15
2022-09-26T08:34:52.567Z,92.51
2022-09-26T08:36:12.668Z,92.42
2022-09-26T08:38:02.797Z,90.59
2022-09-26T08:39:13.315Z,89.52
2022-09-26T08:41:14.273Z,89.90
2022-09-26T08:42:58.842Z,89.75
2022-09-26T08:44:34.382Z,90.37
2022-09-26T08:46:12.590Z,91.13
2022-09-26T08:47:34.742Z,90.85
2022-09-26T08:49:16.629Z,89.77
2022-09-26T08:50:32.699Z,89.50
2022-09-26T08:51:42.108Z,88.94
2022-09-26T08:53:10.406Z,88.64
2022-09-26T08:54:34.977Z,87.70
2022-09-26T08:55:43.437Z,87.98
2022-09-26T08:57:05.878Z,87.72
2022-09-26T08:58:15.285Z,88.54
2022-09-26T08:59:29.585Z,89.78
2022-09-26T09:00:34.425Z,90.05
2022-09-26T09:01:45.178Z,89.04
2022-09-26T09:03:04.065Z,87.92
2022-09-26T09:04:44.812Z,87.31
2022-09-26T09:05:54.590Z,86.71
2022-09-26T09:07:11.927Z,86.72
2022-09-26T09:08:22.765Z,86.63
2022-09-26T09:10:24.085Z,86.74
2022-09-26T09:11:51.091Z,87.05
2022-09-26T09:13:14.889Z,85.74
2022-09-26T09:14:40.309Z,85.23
2022-09-26T09:16:12.716Z,86.31
2022-09-26T09:17:43.027Z,84.15
2022-09-26T09:19:30.737Z,83.18
2022-09-26T09:21:09.190Z,83.59
2022-09-26T09:22:48.920Z,83.79
2022-09-26T09:24:14.123Z,83.18
2022-09-26T09:25:29.598Z,82.61
2022-09-26T09:28:10.466Z,79.93
2022-09-26T09:29:35.632Z,80.30
2022-09-26T09:31:02.184Z,79.71
2022-09-26T09:32:32.337Z,79.76
2022-09-26T09:33:58.789Z,80.39
2022-09-26T09:35:29.346Z,79.58
2022-09-26T09:36:57.777Z,78.34
2022-09-26T09:39:05.792Z,78.98
2022-09-26T09:40:35.695Z,77.58
2022-09-26T09:41:53.729Z,77.28
2022-09-26T09:43:13.767Z,77.47
2022-09-26T09:44:34.149Z,77.49
2022-09-26T09:45:48.301Z,76.93
2022-09-26T09:46:51.493Z,76.91
2022-09-26T09:47:53.524Z,76.45
2022-09-26T09:49:09.375Z,76.10
2022-09-26T09:50:17.662Z,76.65
2022-09-26T09:51:25.225Z,76.83
2022-09-26T09:52:43.027Z,76.59
2022-09-26T09:54:12.714Z,76.36
2022-09-26T09:55:38.682Z,76.56
2022-09-26T09:57:17.226Z,76.89
2022-09-26T09:58:18.885Z,77.07
2022-09-26T09:59:42.373Z,77.42
2022-09-26T10:01:03.758Z,76.55
2022-09-26T10:02:40.321Z,77.04
2022-09-26T10:04:05.370Z,77.31
2022-09-26T10:05:45.296Z,76.83
2022-09-26T10:06:52.629Z,77.47
2022-09-26T10:07:59.337Z,77.10
2022-09-26T10:09:54.176Z,78.27
2022-09-26T10:11:42.399Z,77.22
2022-09-26T10:13:27.270Z,76.50
2022-09-26T10:15:02.388Z,75.76
2022-09-26T10:16:23.788Z,75.35
2022-09-26T10:17:31.199Z,74.68
2022-09-26T10:19:00.821Z,75.04
2022-09-26T10:20:05.414Z,74.86
2022-09-26T10:21:16.198Z,73.75
2022-09-26T10:22:37.340Z,72.81
2022-09-26T10:23:46.805Z,73.05
2022-09-26T10:25:08.608Z,73.39
2022-09-26T10:26:13.727Z,72.39
2022-09-26T10:27:38.222Z,71.23
2022-09-26T10:28:57.980Z,71.28
2022-09-26T10:30:02.117Z,69.95
2022-09-26T10:31:10.623Z,68.97
2022-09-26T10:32:45.855Z,69.72
2022-09-26T10:34:24.284Z,69.06
2022-09-26T10:35:46.601Z,70.41
2022-09-26T10:36:50.801Z,70.04
2022-09-26T10:38:06.203Z,70.08
2022-09-26T10:39:35.386Z,69.29
2022-09-26T10:40:51.158Z,68.18
2022-09-26T10:41:58.461Z,68.57
2022-09-26T10:43:21.999Z,68.74
2022-09-26T10:44:28.978Z,68.85
2022-09-26T10:46:16.469Z,69.32
2022-09-26T10:47:38.152Z,69.87
2022-09-26T10:48:48.900Z,70.42
2022-09-26T10:50:17.687Z,70.96
2022-09-26T10:51:45.524Z,71.45
2022-09-26T10:52:57.634Z,71.29
2022-09-26T10:54:16.322Z,70.65
2022-09-26T10:55:29.240Z,70.93
2022-09-26T10:56:41.646Z,70.70
2022-09-26T10:57:48.664Z,70.23
2022-09-26T10:58:52.180Z,70.48
2022-09-26T10:59:59.457Z,70.38
2022-09-26T11:01:01.517Z,71.24
2022-09-26T11:02:05.490Z,71.55
2022-09-26T11:03:16.409Z,72.27
2022-09-26T11:05:05.442Z,72.20
2022-09-26T11:06:34.925Z,70.94
2022-09-26T11:08:38.263Z,70.65
2022-09-26T11:10:34.251Z,70.97
2022-09-26T11:11:48.035Z,71.50
2022-09-26T11:13:00.777Z,71.48
2022-09-26T11:14:07.546Z,71.45
2022-09-26T11:15:13.129Z,71.72
2022-09-26T11:16:20.300Z,71.54
2022-09-26T11:17:47.894Z,71.58
2022-09-26T11:19:07.873Z,71.38
2022-09-26T11:20:35.485Z,71.57
2022-09-26T11:22:08.033Z,69.74
2022-09-26T11:23:17.681Z,67.05
2022-09-26T11:24:37.947Z,65.90
2022-09-26T11:25:58.160Z,66.03
2022-09-26T11:27:10.671Z,66.15
2022-09-26T11:28:34.407Z,66.78
2022-09-26T11:30:21.811Z,67.53
2022-09-26T11:31:42.948Z,68.23
2022-09-26T11:33:17.536Z,68.52
2022-09-26T11:35:03.102Z,68.70
2022-09-26T11:36:28.802Z,68.48
2022-09-26T11:37:45.668Z,68.76
2022-09-26T11:38:55.972Z,69.22
2022-09-26T11:40:27.170Z,69.61
2022-09-26T11:41:38.720Z,70.38
2022-09-26T11:43:02.252Z,69.11
2022-09-26T11:44:35.715Z,68.62
2022-09-26T11:46:17.390Z,68.73
2022-09-26T11:48:17.022Z,68.45
2022-09-26T11:50:50.325Z,68.11
2022-09-26T11:52:29.610Z,68.61
2022-09-26T11:54:09.517Z,69.37
2022-09-26T11:55:24.283Z,69.97
2022-09-26T11:56:47.860Z,69.84
2022-09-26T11:57:55.464Z,69.87
2022-09-26T11:59:31.557Z,70.20
2022-09-26T12:01:16.971Z,70.08
2022-09-26T12:03:06.813Z,69.50
2022-09-26T12:04:57.941Z,69.37
2022-09-26T12:06:01.282Z,68.78
2022-09-26T12:07:22.354Z,69.18
2022-09-26T12:09:05.074Z,69.77
2022-09-26T12:10:33.049Z,68.31
2022-09-26T12:11:51.159Z,67.91
2022-09-26T12:13:17.211Z,67.80
2022-09-26T12:14:38.984Z,68.14
2022-09-26T12:16:07.001Z,69.65
2022-09-26T12:17:18.801Z,67.86
2022-09-26T12:18:43.543Z,67.51
2022-09-26T12:20:03.110Z,67.84
2022-09-26T12:21:28.846Z,67.97
2022-09-26T12:22:49.756Z,67.26
2022-09-26T12:24:31.178Z,66.27
2022-09-26T12:25:46.222Z,65.60
2022-09-26T12:27:04.256Z,65.64
2022-09-26T12:28:27.578Z,64.62
2022-09-26T12:29:46.933Z,64.49
2022-09-26T12:30:58.870Z,63.53
2022-09-26T12:32:27.347Z,63.57
2022-09-26T12:33:49.738Z,63.90
2022-09-26T12:35:32.002Z,64.82
2022-09-26T12:36:54.562Z,63.91
2022-09-26T12:38:20.662Z,63.58
2022-09-26T12:39:40.947Z,63.15
2022-09-26T12:40:53.716Z,62.88
2022-09-26T12:42:13.882Z,62.96
2022-09-26T12:43:44.642Z,62.28
2022-09-26T12:45:20.082Z,62.05
2022-09-26T12:46:59.253Z,61.04
2022-09-26T12:48:35.768Z,61.10
2022-09-26T12:50:08.183Z,60.89
2022-09-26T12:51:32.767Z,59.30
2022-09-26T12:53:02.917Z,57.96
2022-09-26T12:54:40.213Z,57.46
2022-09-26T12:55:47.542Z,57.33
2022-09-26T12:57:00.966Z,57.71
2022-09-26T12:58:37.957Z,57.53
2022-09-26T13:00:12.562Z,57.17
2022-09-26T13:01:44.952Z,57.17
2022-09-26T13:03:10.479Z,56.76
2022-09-26T13:04:39.956Z,56.75
2022-09-26T13:06:09.575Z,54.77
2022-09-26T13:07:42.342Z,54.16
2022-09-26T13:09:24.115Z,53.67
2022-09-26T13:10:40.906Z,53.67
2022-09-26T13:11:59.517Z,53.17
2022-09-26T13:13:47.674Z,54.27
2022-09-26T13:15:00.803Z,54.62
2022-09-26T13:16:27.555Z,54.73
2022-09-26T13:17:46.042Z,55.57
2022-09-26T13:18:56.551Z,55.89
2022-09-26T13:20:14.643Z,56.14
2022-09-26T13:21:27.077Z,56.79
2022-09-26T13:22:44.357Z,56.54
2022-09-26T13:24:01.124Z,57.23
2022-09-26T13:25:11.498Z,57.66
2022-09-26T13:26:43.725Z,58.73
2022-09-26T13:28:09.207Z,59.29
2022-09-26T13:29:26.999Z,59.26
2022-09-26T13:30:35.692Z,59.21
2022-09-26T13:31:56.106Z,59.07
2022-09-26T13:33:20.853Z,59.39
2022-09-26T13:34:37.498Z,59.95
2022-09-26T13:35:47.791Z,59.82
2022-09-26T13:36:51.620Z,59.79
2022-09-26T13:38:15.427Z,59.54
2022-09-26T13:39:29.948Z,59.59
2022-09-26T13:40:55.569Z,60.22
2022-09-26T13:42:17.908Z,60.53
2022-09-26T13:43:47.675Z,59.92
2022-09-26T13:45:02.458Z,58.87
2022-09-26T13:46:20.317Z,59.61
2022-09-26T13:47:41.457Z,59.05
2022-09-26T13:49:01.116Z,59.01
2022-09-26T13:50:23.305Z,58.41
2022-09-26T13:51:40.136Z,58.64
2022-09-26T13:53:09.961Z,58.77
2022-09-26T13:54:27.853Z,59.14
2022-09-26T13:55:30.335Z,59.80
2022-09-26T13:56:35.085Z,60.06
2022-09-26T13:58:06.914Z,60.30
2022-09-26T13:59:14.736Z,60.38
2022-09-26T14:00:31.475Z,60.46
2022-09-26T14:01:33.668Z,60.83
2022-09-26T14:02:35.429Z,60.74
2022-09-26T14:03:38.918Z,61.09
2022-09-26T14:04:40.727Z,61.63
2022-09-26T14:05:42.246Z,62.02
2022-09-26T14:07:24.084Z,62.43
2022-09-26T14:08:44.246Z,63.11
2022-09-26T14:10:04.001Z,63.17
2022-09-26T14:11:12.166Z,63.47
2022-09-26T14:12:20.226Z,63.86
2022-09-26T14:13:37.261Z,64.25
2022-09-26T14:14:46.298Z,64.72
2022-09-26T14:15:48.250Z,65.15
2022-09-26T14:16:53.679Z,65.26
2022-09-26T14:18:08.457Z,65.67
2022-09-26T14:19:18.848Z,65.88
2022-09-26T14:20:27.293Z,66.21
2022-09-26T14:21:39.811Z,66.66
2022-09-26T14:22:52.641Z,67.48
2022-09-26T14:24:32.047Z,67.40
2022-09-26T14:25:45.770Z,67.98
2022-09-26T14:27:26.093Z,68.30
2022-09-26T14:28:34.929Z,68.65
2022-09-26T14:29:39.340Z,69.31
2022-09-26T14:31:13.303Z,69.57
2022-09-26T14:32:43.465Z,70.95
2022-09-26T14:33:46.101Z,73.09
2022-09-26T14:34:57.172Z,73.95
2022-09-26T14:36:25.535Z,75.56
2022-09-26T14:37:41.484Z,77.38
2022-09-26T14:38:48.406Z,77.57
2022-09-26T14:40:34.517Z,77.73
2022-09-26T14:41:36.627Z,78.22
2022-09-26T14:42:51.756Z,78.81
2022-09-26T14:44:02.573Z,79.85
2022-09-26T14:45:17.558Z,80.49
2022-09-26T14:46:25.475Z,81.50
2022-09-26T14:47:40.206Z,81.70
2022-09-26T14:48:43.231Z,82.32
2022-09-26T14:49:58.049Z,82.96
2022-09-26T14:51:11.707Z,83.27
2022-09-26T14:52:20.385Z,82.58
2022-09-26T14:53:34.044Z,82.58
2022-09-26T14:54:40.830Z,83.30
2022-09-26T14:56:02.997Z,84.14
2022-09-26T14:57:08.319Z,85.14
2022-09-26T14:58:28.902Z,85.70
2022-09-26T14:59:42.453Z,86.28
2022-09-26T15:00:49.693Z,86.28
2022-09-26T15:02:40.567Z,86.63
2022-09-26T15:03:43.183Z,86.96
2022-09-26T15:04:51.745Z,86.77
2022-09-26T15:05:53.427Z,86.77
2022-09-26T15:07:01.092Z,86.50
2022-09-26T15:08:03.075Z,86.90
2022-09-26T15:09:11.334Z,87.28
2022-09-26T15:10:13.251Z,87.52
2022-09-26T15:11:30.200Z,88.02
2022-09-26T15:12:48.202Z,88.67
2022-09-26T15:13:52.570Z,89.16
2022-09-26T15:15:15.801Z,89.47
2022-09-26T15:16:29.204Z,90.13
2022-09-26T15:17:40.459Z,90.20
2022-09-26T15:18:50.060Z,90.46
2022-09-26T15:19:57.622Z,90.92
2022-09-26T15:21:12.027Z,91.05
2022-09-26T15:22:18.845Z,90.60
2022-09-26T15:23:31.674Z,90.69
2022-09-26T15:24:36.684Z,90.51
2022-09-26T15:25:38.820Z,90.98
2022-09-26T15:26:43.324Z,91.59
2022-09-26T15:27:56.943Z,91.94
2022-09-26T15:29:00.277Z,92.05
2022-09-26T15:30:22.759Z,92.16
2022-09-26T15:31:38.017Z,92.46
2022-09-26T15:32:40.237Z,93.10
2022-09-26T15:33:42.148Z,93.30
2022-09-26T15:34:44.659Z,93.60
2022-09-26T15:35:54.195Z,93.92
2022-09-26T15:36:59.313Z,94.37
2022-09-26T15:38:12.099Z,94.45
2022-09-26T15:39:31.975Z,94.71
2022-09-26T15:40:33.853Z,95.13
2022-09-26T15:42:03.284Z,95.22
2022-09-26T15:43:12.489Z,95.04
2022-09-26T15:44:23.556Z,95.25
2022-09-26T15:45:33.589Z,95.45